Time;durP1;ratioP1;P1;durP2;ratioP2;P2;SDS_P1;SDS_P2;PMS_P1;PMS_P2;Temp;Humidity;BMP_temperature;BMP_pressure;BME280_temperature;BME280_humidity;BME280_pressure;Samples;Min_cycle;Max_cycle;Signal;HPM_P1;HPM_P2
2023/03/17 00:00:09;;;;;;;18.40;16.80;;;8.50;99.90;;;;;;5092768;28;21009;-69
2023/03/17 00:02:36;;;;;;;17.53;16.43;;;8.50;99.90;;;;;;5096847;28;20469;-70
2023/03/17 00:05:13;;;;;;;17.10;15.97;;;8.50;99.90;;;;;;5088865;28;21093;-68
2023/03/17 00:07:41;;;;;;;16.77;15.80;;;8.50;99.90;;;;;;5091224;28;20465;-69
2023/03/17 00:10:13;;;;;;;17.47;16.40;;;8.50;99.90;;;;;;5089420;28;20955;-71
2023/03/17 00:12:40;;;;;;;17.60;16.50;;;8.50;99.90;;;;;;5089620;28;20914;-68
2023/03/17 00:15:09;;;;;;;17.30;16.30;;;8.50;99.90;;;;;;5090699;28;20487;-69
2023/03/17 00:17:36;;;;;;;17.20;16.00;;;8.50;99.90;;;;;;5093620;28;20480;-71
2023/03/17 00:20:06;;;;;;;17.10;16.00;;;8.40;99.90;;;;;;5092245;28;20473;-68
2023/03/17 00:22:33;;;;;;;16.90;16.00;;;8.40;99.90;;;;;;5090163;28;20469;-71
2023/03/17 00:25:02;;;;;;;18.13;16.53;;;8.30;99.90;;;;;;5090001;28;20477;-70
2023/03/17 00:27:29;;;;;;;16.73;15.63;;;8.30;99.90;;;;;;5088062;28;20470;-70
2023/03/17 00:29:56;;;;;;;16.63;15.70;;;8.20;99.90;;;;;;5093806;28;20969;-70
2023/03/17 00:32:22;;;;;;;17.53;16.37;;;8.20;99.90;;;;;;5095841;28;20852;-71
2023/03/17 00:34:49;;;;;;;16.90;16.00;;;8.20;99.90;;;;;;5095120;28;20461;-69
2023/03/17 00:37:18;;;;;;;17.83;16.60;;;8.20;99.90;;;;;;5094528;28;20904;-68
2023/03/17 00:39:46;;;;;;;17.33;16.20;;;8.20;99.90;;;;;;5094794;28;20789;-69
2023/03/17 00:42:14;;;;;;;16.27;15.27;;;8.30;99.90;;;;;;5086852;28;20532;-69
2023/03/17 00:44:41;;;;;;;17.43;16.33;;;8.20;99.90;;;;;;5096707;28;20469;-71
2023/03/17 00:47:10;;;;;;;17.50;16.33;;;8.20;99.90;;;;;;5093263;28;20995;-70
2023/03/17 00:49:38;;;;;;;17.07;15.87;;;8.20;99.90;;;;;;5093749;28;20981;-70
2023/03/17 00:52:06;;;;;;;17.43;16.10;;;8.10;99.90;;;;;;5090534;28;20523;-70
2023/03/17 00:54:34;;;;;;;18.37;17.03;;;8.20;99.90;;;;;;5087195;28;20535;-69
2023/03/17 00:57:01;;;;;;;18.30;16.80;;;8.20;99.90;;;;;;5092400;28;20464;-71
2023/03/17 00:59:30;;;;;;;17.37;16.17;;;8.20;99.90;;;;;;5092865;28;20502;-70
2023/03/17 01:01:58;;;;;;;26.80;17.30;;;8.20;99.90;;;;;;5088064;28;20832;-71
2023/03/17 01:04:25;;;;;;;18.10;15.60;;;8.20;99.90;;;;;;5086004;28;20473;-70
2023/03/17 01:06:52;;;;;;;20.43;18.33;;;8.20;99.90;;;;;;5091686;28;20455;-70
2023/03/17 01:09:24;;;;;;;16.63;15.73;;;8.20;99.90;;;;;;5097449;28;20887;-70
2023/03/17 01:11:53;;;;;;;17.90;16.40;;;8.20;99.90;;;;;;5088579;28;20457;-71
2023/03/17 01:14:21;;;;;;;16.90;15.70;;;8.20;99.90;;;;;;5092246;28;20457;-72
2023/03/17 01:16:49;;;;;;;17.40;16.20;;;8.20;99.90;;;;;;5087472;28;20550;-68
2023/03/17 01:19:16;;;;;;;18.27;17.07;;;8.10;99.90;;;;;;5095385;28;20495;-71
2023/03/17 01:21:44;;;;;;;18.67;17.00;;;8.10;99.90;;;;;;5088619;28;20465;-71
2023/03/17 01:24:11;;;;;;;18.03;16.43;;;8.00;99.90;;;;;;5088543;28;20484;-69
2023/03/17 01:26:39;;;;;;;17.47;16.30;;;7.90;99.90;;;;;;5089615;28;20558;-70
2023/03/17 01:29:08;;;;;;;19.70;17.63;;;7.90;99.90;;;;;;5090963;28;20514;-71
2023/03/17 01:31:35;;;;;;;17.93;16.60;;;7.90;99.90;;;;;;5086265;28;20465;-69
2023/03/17 01:34:03;;;;;;;18.20;16.50;;;7.90;99.90;;;;;;5094184;28;20577;-68
2023/03/17 01:36:29;;;;;;;18.77;16.93;;;7.80;99.90;;;;;;5092051;28;20583;-70
2023/03/17 01:38:57;;;;;;;18.40;17.10;;;7.70;99.90;;;;;;5094605;28;20556;-70
2023/03/17 01:41:24;;;;;;;17.97;16.33;;;7.70;99.90;;;;;;5093157;28;20458;-71
2023/03/17 01:43:51;;;;;;;18.10;16.83;;;7.70;99.90;;;;;;5088316;28;20511;-70
2023/03/17 01:46:26;;;;;;;19.53;17.53;;;7.60;99.90;;;;;;5091193;28;20483;-67
2023/03/17 01:49:00;;;;;;;18.23;16.83;;;7.60;99.90;;;;;;5099634;28;20564;-70
2023/03/17 01:51:31;;;;;;;18.47;16.77;;;7.60;99.90;;;;;;5093282;28;20461;-70
2023/03/17 01:53:59;;;;;;;17.90;16.43;;;7.50;99.90;;;;;;5087484;27;20871;-69
2023/03/17 01:56:27;;;;;;;18.50;16.90;;;7.50;99.90;;;;;;5093850;28;20518;-69
2023/03/17 01:58:56;;;;;;;18.03;16.73;;;7.50;99.90;;;;;;5091929;28;20493;-69
2023/03/17 02:01:30;;;;;;;18.63;17.03;;;7.40;99.90;;;;;;5086272;28;20476;-70
2023/03/17 02:03:58;;;;;;;17.00;16.10;;;7.40;99.90;;;;;;5092942;28;20465;-71
2023/03/17 02:06:26;;;;;;;17.40;16.20;;;7.40;99.90;;;;;;5091455;28;20929;-71
2023/03/17 02:08:53;;;;;;;17.57;16.47;;;7.30;99.90;;;;;;5096398;28;20831;-68
2023/03/17 02:11:21;;;;;;;17.83;16.47;;;7.20;99.90;;;;;;5088675;28;20483;-69
2023/03/17 02:13:48;;;;;;;18.33;16.73;;;7.20;99.90;;;;;;5085581;28;20515;-71
2023/03/17 02:16:16;;;;;;;19.30;17.70;;;7.20;99.90;;;;;;5092900;28;20549;-69
2023/03/17 02:18:45;;;;;;;19.53;17.00;;;7.20;99.90;;;;;;5092861;28;20488;-70
2023/03/17 02:21:41;;;;;;;19.47;16.93;;;7.20;99.90;;;;;;5099314;28;20461;-68
2023/03/17 02:24:18;;;;;;;18.77;17.37;;;7.10;99.90;;;;;;5093873;28;21001;-69
2023/03/17 02:26:47;;;;;;;24.70;16.90;;;7.10;99.90;;;;;;5088111;28;20474;-70
2023/03/17 02:29:14;;;;;;;21.50;16.40;;;7.00;99.90;;;;;;5089203;28;20939;-71
2023/03/17 02:31:42;;;;;;;17.73;16.23;;;7.00;99.90;;;;;;5090915;28;21055;-70
2023/03/17 02:34:08;;;;;;;18.47;16.60;;;7.00;99.90;;;;;;5096280;28;20854;-68
2023/03/17 02:36:36;;;;;;;21.70;16.00;;;6.90;99.90;;;;;;5092211;28;20452;-70
2023/03/17 02:39:05;;;;;;;18.93;17.43;;;6.80;99.90;;;;;;5100330;28;20504;-68
2023/03/17 02:41:33;;;;;;;20.83;16.53;;;6.80;99.90;;;;;;5089342;28;20467;-69
2023/03/17 02:44:01;;;;;;;23.77;17.40;;;6.80;99.90;;;;;;5098805;28;20544;-69
2023/03/17 02:46:28;;;;;;;17.40;15.77;;;6.70;99.90;;;;;;5087226;28;20819;-70
2023/03/17 02:48:56;;;;;;;17.73;16.37;;;6.70;99.90;;;;;;5098523;28;20466;-71
2023/03/17 02:51:24;;;;;;;18.37;16.87;;;6.70;99.90;;;;;;5087575;28;20695;-69
2023/03/17 02:53:51;;;;;;;18.33;16.53;;;6.70;99.90;;;;;;5088262;28;20766;-70
2023/03/17 02:56:19;;;;;;;16.50;15.20;;;6.70;99.90;;;;;;5086975;28;20476;-71
2023/03/17 02:58:46;;;;;;;19.40;17.00;;;6.60;99.90;;;;;;5093013;28;20499;-71
2023/03/17 03:01:14;;;;;;;17.37;16.10;;;6.60;99.90;;;;;;5092447;28;20475;-68
2023/03/17 03:03:41;;;;;;;16.87;15.57;;;6.60;99.90;;;;;;5091752;28;20897;-68
2023/03/17 03:06:08;;;;;;;25.43;17.43;;;6.60;99.90;;;;;;5092868;28;20988;-71
2023/03/17 03:08:35;;;;;;;24.40;16.30;;;6.50;99.90;;;;;;5087022;28;20488;-68
2023/03/17 03:11:03;;;;;;;17.47;16.17;;;6.50;99.90;;;;;;5095142;28;20483;-70
2023/03/17 03:13:32;;;;;;;18.27;15.97;;;6.50;99.90;;;;;;5091270;28;20739;-71
2023/03/17 03:15:59;;;;;;;18.17;16.40;;;6.40;99.90;;;;;;5088598;28;20472;-69
2023/03/17 03:18:26;;;;;;;17.90;16.30;;;6.40;99.90;;;;;;5101021;28;20576;-69
2023/03/17 03:20:53;;;;;;;22.03;16.27;;;6.40;99.90;;;;;;5088180;28;20551;-71
2023/03/17 03:23:20;;;;;;;17.03;15.63;;;6.40;99.90;;;;;;5094675;28;20468;-70
2023/03/17 03:25:47;;;;;;;17.97;16.10;;;6.40;99.90;;;;;;5091841;28;20855;-70
2023/03/17 03:28:14;;;;;;;17.53;15.90;;;6.40;99.90;;;;;;5089716;28;20452;-68
2023/03/17 03:30:43;;;;;;;18.47;16.67;;;6.40;99.90;;;;;;5092335;28;20469;-69
2023/03/17 03:33:11;;;;;;;17.27;16.00;;;6.50;99.90;;;;;;5099375;28;20873;-69
2023/03/17 03:35:38;;;;;;;17.90;16.57;;;6.50;99.90;;;;;;5090189;28;20833;-68
2023/03/17 03:38:06;;;;;;;17.30;16.10;;;6.50;99.90;;;;;;5092635;28;20473;-70
2023/03/17 03:40:33;;;;;;;18.20;16.77;;;6.60;99.90;;;;;;5093944;28;20457;-71
2023/03/17 03:43:01;;;;;;;17.83;16.23;;;6.50;99.90;;;;;;5086120;28;20868;-70
2023/03/17 03:45:28;;;;;;;41.93;17.80;;;6.50;99.90;;;;;;5093160;28;20552;-68
2023/03/17 03:47:56;;;;;;;17.47;15.73;;;6.50;99.90;;;;;;5097042;28;20457;-70
2023/03/17 03:50:24;;;;;;;17.27;16.07;;;6.50;99.90;;;;;;5090056;28;20885;-71
2023/03/17 03:52:51;;;;;;;16.47;15.40;;;6.60;99.90;;;;;;5090951;28;20822;-69
2023/03/17 03:55:18;;;;;;;17.33;16.10;;;6.60;99.90;;;;;;5084238;28;20557;-71
2023/03/17 03:57:45;;;;;;;16.97;15.70;;;6.70;99.90;;;;;;5094052;28;20817;-69
2023/03/17 04:00:13;;;;;;;17.50;16.17;;;6.70;99.90;;;;;;5088438;28;20490;-68
2023/03/17 04:02:40;;;;;;;17.20;15.63;;;6.70;99.90;;;;;;5090754;28;21220;-69
2023/03/17 04:05:10;;;;;;;21.13;15.90;;;6.70;99.90;;;;;;5088738;28;20469;-69
2023/03/17 04:07:36;;;;;;;17.10;15.87;;;6.70;99.90;;;;;;5090611;28;22605;-69
2023/03/17 04:10:04;;;;;;;17.13;15.70;;;6.70;99.90;;;;;;5096861;28;20473;-67
2023/03/17 04:12:31;;;;;;;16.50;15.30;;;6.70;99.90;;;;;;5084937;28;20543;-69
2023/03/17 04:14:58;;;;;;;17.70;16.40;;;6.70;99.90;;;;;;5090188;28;20495;-66
2023/03/17 04:17:25;;;;;;;17.13;16.03;;;6.60;99.90;;;;;;5086084;28;20475;-67
2023/03/17 04:19:52;;;;;;;19.73;15.97;;;6.60;99.90;;;;;;5093386;28;20473;-66
2023/03/17 04:22:20;;;;;;;16.97;15.77;;;6.70;99.90;;;;;;5095820;28;20470;-67
2023/03/17 04:24:47;;;;;;;16.53;15.40;;;6.60;99.90;;;;;;5095147;28;20478;-69
2023/03/17 04:27:15;;;;;;;16.80;15.50;;;6.60;99.90;;;;;;5087944;28;20833;-69
2023/03/17 04:29:43;;;;;;;17.97;16.37;;;6.60;99.90;;;;;;5085351;28;20465;-70
2023/03/17 04:32:12;;;;;;;16.57;15.20;;;6.60;99.90;;;;;;5085015;28;20462;-68
2023/03/17 04:34:40;;;;;;;16.90;15.60;;;6.60;99.90;;;;;;5096800;28;20470;-67
2023/03/17 04:37:07;;;;;;;17.17;15.93;;;6.60;99.90;;;;;;5099128;28;20545;-69
2023/03/17 04:39:35;;;;;;;17.17;15.87;;;6.60;99.90;;;;;;5095662;28;20512;-69
2023/03/17 04:42:02;;;;;;;16.60;15.40;;;6.60;99.90;;;;;;5088987;28;20490;-70
2023/03/17 04:44:30;;;;;;;16.50;15.23;;;6.60;99.90;;;;;;5093600;28;20470;-72
2023/03/17 04:46:57;;;;;;;16.50;15.30;;;6.70;99.90;;;;;;5092080;28;20549;-73
2023/03/17 04:49:25;;;;;;;17.00;15.80;;;6.70;99.90;;;;;;5087086;28;20469;-70
2023/03/17 04:51:52;;;;;;;18.30;16.00;;;6.80;99.90;;;;;;5093098;28;21047;-72
2023/03/17 04:54:19;;;;;;;17.50;16.10;;;6.80;99.90;;;;;;5088600;28;20468;-70
2023/03/17 04:56:47;;;;;;;16.57;15.23;;;6.80;99.90;;;;;;5087090;28;20474;-70
2023/03/17 04:59:13;;;;;;;16.40;15.30;;;6.80;99.90;;;;;;5091512;28;20508;-71
2023/03/17 05:01:40;;;;;;;16.53;15.33;;;6.80;99.90;;;;;;5089044;28;20465;-69
2023/03/17 05:04:08;;;;;;;21.30;15.73;;;6.80;99.90;;;;;;5086911;28;20446;-70
2023/03/17 05:06:36;;;;;;;17.70;15.23;;;6.80;99.90;;;;;;5090631;28;20889;-70
2023/03/17 05:09:03;;;;;;;16.80;15.50;;;6.80;99.90;;;;;;5095536;28;20457;-68
2023/03/17 05:11:31;;;;;;;16.83;15.33;;;6.80;99.90;;;;;;5094381;28;21016;-70
2023/03/17 05:13:59;;;;;;;17.03;15.40;;;6.80;99.90;;;;;;5096505;28;20468;-68
2023/03/17 05:16:27;;;;;;;16.90;15.80;;;6.80;99.90;;;;;;5095977;28;20824;-66
2023/03/17 05:18:54;;;;;;;16.93;15.50;;;6.90;99.90;;;;;;5093871;28;20979;-70
2023/03/17 05:21:21;;;;;;;16.73;15.43;;;6.90;99.90;;;;;;5089831;28;20465;-67
2023/03/17 05:23:48;;;;;;;16.30;15.30;;;6.90;99.90;;;;;;5091924;28;20487;-69
2023/03/17 05:26:14;;;;;;;16.80;15.70;;;6.90;99.90;;;;;;5090794;28;20464;-68
2023/03/17 05:28:42;;;;;;;16.80;15.50;;;7.00;99.90;;;;;;5090457;28;20858;-67
2023/03/17 05:31:10;;;;;;;16.87;15.70;;;7.00;99.90;;;;;;5095093;28;20465;-68
2023/03/17 05:33:37;;;;;;;16.60;15.50;;;7.00;99.90;;;;;;5096730;28;20468;-67
2023/03/17 05:36:04;;;;;;;16.57;15.53;;;7.00;99.90;;;;;;5099257;28;20472;-69
2023/03/17 05:38:31;;;;;;;17.43;15.70;;;7.00;99.90;;;;;;5092360;28;20465;-70
2023/03/17 05:40:58;;;;;;;18.23;16.53;;;7.00;99.90;;;;;;5094843;28;21499;-69
2023/03/17 05:43:25;;;;;;;17.63;16.33;;;7.00;99.90;;;;;;5098017;28;20481;-67
2023/03/17 05:45:51;;;;;;;17.10;16.00;;;7.00;99.90;;;;;;5092656;28;20454;-70
2023/03/17 05:48:20;;;;;;;17.47;16.00;;;7.00;99.90;;;;;;5094035;28;20820;-69
2023/03/17 05:50:47;;;;;;;19.43;16.00;;;7.00;99.90;;;;;;5091317;28;20976;-68
2023/03/17 05:53:14;;;;;;;18.40;16.80;;;7.00;99.90;;;;;;5097951;28;20453;-69
2023/03/17 05:55:41;;;;;;;23.77;15.90;;;7.00;99.90;;;;;;5092777;28;20987;-70
2023/03/17 05:58:08;;;;;;;17.20;15.80;;;7.10;99.90;;;;;;5097759;28;20460;-69
2023/03/17 06:00:36;;;;;;;17.77;16.40;;;7.00;99.90;;;;;;5089676;28;20491;-69
2023/03/17 06:03:03;;;;;;;17.50;16.30;;;7.10;99.90;;;;;;5089100;28;20461;-70
2023/03/17 06:05:31;;;;;;;17.37;16.13;;;7.10;99.90;;;;;;5098352;28;20747;-69
2023/03/17 06:07:59;;;;;;;18.33;16.40;;;7.10;99.90;;;;;;5089001;28;20472;-68
2023/03/17 06:10:26;;;;;;;18.40;16.50;;;7.10;99.90;;;;;;5088439;28;20967;-67
2023/03/17 06:12:53;;;;;;;16.70;15.80;;;7.10;99.90;;;;;;5101082;28;20510;-67
2023/03/17 06:15:21;;;;;;;21.30;16.80;;;7.10;99.90;;;;;;5093704;28;20460;-70
2023/03/17 06:17:48;;;;;;;18.20;16.33;;;7.20;99.90;;;;;;5091379;28;20540;-66
2023/03/17 06:20:15;;;;;;;22.27;18.73;;;7.30;99.90;;;;;;5092018;28;20996;-68
2023/03/17 06:22:43;;;;;;;18.60;17.10;;;7.30;99.90;;;;;;5099600;28;20833;-71
2023/03/17 06:25:11;;;;;;;20.10;18.40;;;7.30;99.90;;;;;;5093474;28;20884;-70
2023/03/17 06:27:38;;;;;;;19.33;17.43;;;7.40;99.90;;;;;;5091737;28;20480;-68
2023/03/17 06:30:07;;;;;;;19.30;16.77;;;7.40;99.90;;;;;;5084647;28;20472;-66
2023/03/17 06:32:34;;;;;;;18.03;16.73;;;7.50;99.90;;;;;;5088123;28;20572;-68
2023/03/17 06:35:02;;;;;;;18.90;17.50;;;7.50;99.90;;;;;;5093568;28;20548;-69
2023/03/17 06:37:29;;;;;;;18.53;17.10;;;7.60;99.90;;;;;;5099811;28;20487;-72
2023/03/17 06:39:59;;;;;;;18.33;17.13;;;7.70;99.90;;;;;;5090943;28;20485;-68
2023/03/17 06:42:26;;;;;;;18.30;17.03;;;7.70;99.90;;;;;;5091270;28;20557;-70
2023/03/17 06:44:54;;;;;;;19.00;17.13;;;7.80;99.90;;;;;;5091755;28;20895;-67
2023/03/17 06:47:21;;;;;;;17.80;16.80;;;7.90;99.90;;;;;;5089838;28;20948;-68
2023/03/17 06:49:48;;;;;;;19.07;17.47;;;8.00;99.90;;;;;;5092180;28;20830;-69
2023/03/17 06:52:15;;;;;;;19.20;17.27;;;8.20;99.90;;;;;;5093216;28;20472;-67
2023/03/17 06:54:43;;;;;;;19.57;18.00;;;8.20;99.90;;;;;;5086730;28;20465;-70
2023/03/17 06:57:11;;;;;;;20.43;18.50;;;8.30;99.90;;;;;;5101007;28;20533;-68
2023/03/17 06:59:39;;;;;;;18.97;17.47;;;8.40;99.90;;;;;;5098314;28;20481;-67
2023/03/17 07:02:06;;;;;;;18.77;17.37;;;8.40;99.90;;;;;;5096161;28;20863;-68
2023/03/17 07:04:36;;;;;;;19.03;17.63;;;8.60;99.90;;;;;;5094456;28;20470;-67
2023/03/17 07:07:04;;;;;;;19.10;17.70;;;8.60;99.90;;;;;;5089488;28;20458;-68
2023/03/17 07:09:32;;;;;;;19.40;17.83;;;8.70;99.90;;;;;;5087562;28;21109;-67
2023/03/17 07:12:03;;;;;;;20.57;18.40;;;8.80;99.90;;;;;;5093441;28;20519;-69
2023/03/17 07:14:34;;;;;;;18.87;17.57;;;8.90;99.90;;;;;;5093335;28;20471;-69
2023/03/17 07:17:01;;;;;;;19.67;18.27;;;9.00;99.90;;;;;;5089753;28;20465;-69
2023/03/17 07:19:28;;;;;;;19.53;18.27;;;9.00;99.90;;;;;;5088604;28;20533;-67
2023/03/17 07:21:56;;;;;;;19.23;17.93;;;9.20;99.90;;;;;;5091061;28;20870;-68
2023/03/17 07:24:23;;;;;;;20.60;18.90;;;9.30;99.90;;;;;;5091967;28;20825;-70
2023/03/17 07:26:50;;;;;;;19.67;18.07;;;9.50;99.90;;;;;;5088806;28;20972;-69
2023/03/17 07:29:17;;;;;;;20.37;18.57;;;9.50;99.90;;;;;;5096791;28;20566;-70
2023/03/17 07:31:47;;;;;;;21.00;18.77;;;9.60;99.90;;;;;;5090356;28;20462;-70
2023/03/17 07:34:14;;;;;;;21.57;18.80;;;9.70;99.90;;;;;;5090707;28;20502;-67
2023/03/17 07:36:41;;;;;;;20.20;18.80;;;9.90;99.90;;;;;;5090446;28;20647;-68
2023/03/17 07:39:09;;;;;;;20.50;18.67;;;10.10;99.90;;;;;;5090397;28;20450;-68
2023/03/17 07:41:36;;;;;;;19.87;18.30;;;10.10;99.90;;;;;;5085689;28;20616;-68
2023/03/17 07:44:04;;;;;;;19.77;18.60;;;10.10;99.90;;;;;;5086713;28;20457;-69
2023/03/17 07:46:31;;;;;;;19.80;18.30;;;10.20;99.90;;;;;;5092438;28;20461;-70
2023/03/17 07:48:59;;;;;;;20.27;18.50;;;10.40;99.90;;;;;;5097466;28;20469;-68
2023/03/17 07:51:26;;;;;;;19.33;18.13;;;10.40;99.90;;;;;;5092906;28;20520;-67
2023/03/17 07:54:01;;;;;;;20.50;19.00;;;10.50;99.90;;;;;;5087035;28;20462;-70
2023/03/17 07:56:29;;;;;;;20.83;18.93;;;10.60;99.90;;;;;;5094629;28;20866;-68
2023/03/17 07:58:57;;;;;;;20.07;18.67;;;10.60;99.90;;;;;;5089931;28;20473;-68
2023/03/17 08:01:24;;;;;;;19.20;18.00;;;10.60;99.90;;;;;;5092368;28;20692;-69
2023/03/17 08:03:51;;;;;;;19.90;18.60;;;10.70;99.90;;;;;;5092524;28;20531;-70
2023/03/17 08:06:20;;;;;;;20.47;18.40;;;10.70;99.90;;;;;;5093273;28;20886;-69
2023/03/17 08:08:47;;;;;;;19.63;18.33;;;10.80;99.90;;;;;;5089108;28;20457;-68
2023/03/17 08:11:14;;;;;;;19.63;18.23;;;10.90;99.90;;;;;;5089188;28;20520;-70
2023/03/17 08:13:41;;;;;;;20.23;18.20;;;11.00;99.90;;;;;;5087516;28;20546;-68
2023/03/17 08:16:08;;;;;;;20.53;18.03;;;11.10;99.90;;;;;;5083290;28;20467;-69
2023/03/17 08:18:35;;;;;;;20.70;18.90;;;11.20;99.90;;;;;;5077840;28;20564;-69
2023/03/17 08:21:02;;;;;;;20.70;19.10;;;11.30;99.90;;;;;;5081080;28;20489;-68
2023/03/17 08:23:30;;;;;;;21.13;19.40;;;11.40;99.90;;;;;;5087147;28;20461;-68
2023/03/17 08:25:58;;;;;;;20.00;17.97;;;11.50;99.90;;;;;;5109587;28;20449;-68
2023/03/17 08:28:25;;;;;;;20.83;19.40;;;11.60;99.90;;;;;;5109515;28;20658;-68
2023/03/17 08:34:15;;;;;;;21.90;19.30;;;11.60;99.90;;;;;;5108398;28;20484;-69
2023/03/17 08:36:42;;;;;;;20.23;18.93;;;11.70;99.90;;;;;;5108725;28;20736;-71
2023/03/17 08:39:11;;;;;;;20.47;19.27;;;11.80;99.90;;;;;;5106997;28;20829;-69
2023/03/17 08:41:38;;;;;;;20.83;19.00;;;11.90;99.90;;;;;;5109198;28;20469;-69
2023/03/17 08:44:07;;;;;;;19.70;18.60;;;11.90;99.90;;;;;;5106708;28;20480;-69
2023/03/17 08:46:34;;;;;;;20.37;18.77;;;12.10;99.90;;;;;;5109038;28;20450;-68
2023/03/17 08:49:03;;;;;;;20.20;18.70;;;12.10;99.90;;;;;;5105765;28;20485;-69
2023/03/17 08:51:33;;;;;;;19.63;18.40;;;12.10;99.90;;;;;;5109323;28;21069;-69
2023/03/17 08:54:00;;;;;;;22.63;19.63;;;12.10;99.90;;;;;;5107372;28;20453;-67
2023/03/17 08:56:28;;;;;;;20.30;18.87;;;12.10;99.90;;;;;;5108733;28;20968;-71
2023/03/17 08:58:56;;;;;;;21.20;19.60;;;12.10;99.90;;;;;;5108592;28;20456;-68
2023/03/17 09:04:45;;;;;;;20.20;18.80;;;12.30;99.90;;;;;;5108688;28;20486;-69
2023/03/17 09:07:13;;;;;;;20.33;18.93;;;12.50;99.90;;;;;;5109141;28;20448;-68
2023/03/17 09:09:41;;;;;;;20.80;19.30;;;12.60;99.90;;;;;;5108068;28;21112;-69
2023/03/17 09:12:10;;;;;;;20.80;19.50;;;12.80;99.90;;;;;;5107725;28;20533;-69
2023/03/17 09:14:38;;;;;;;19.90;18.70;;;13.00;99.90;;;;;;5106476;28;20461;-69
2023/03/17 09:17:06;;;;;;;20.67;19.27;;;13.30;99.90;;;;;;5105393;28;20510;-70
2023/03/17 09:19:33;;;;;;;20.37;18.80;;;13.50;99.90;;;;;;5106352;28;20529;-68
2023/03/17 09:22:01;;;;;;;20.47;19.13;;;13.60;99.90;;;;;;5107377;28;20481;-69
2023/03/17 09:24:29;;;;;;;20.83;18.67;;;13.60;99.90;;;;;;5101747;28;20481;-69
2023/03/17 09:26:58;;;;;;;21.07;19.30;;;13.70;99.90;;;;;;5086962;28;20465;-70
2023/03/17 09:29:27;;;;;;;20.83;19.00;;;13.90;99.90;;;;;;5083404;28;20729;-70
2023/03/17 09:31:55;;;;;;;20.13;18.80;;;14.00;99.90;;;;;;5087106;28;20457;-68
2023/03/17 09:34:23;;;;;;;19.47;18.33;;;13.90;99.90;;;;;;5089425;28;20554;-68
2023/03/17 09:36:51;;;;;;;20.63;19.07;;;14.00;99.90;;;;;;5084563;28;20470;-70
2023/03/17 09:39:17;;;;;;;19.63;18.63;;;13.90;99.90;;;;;;5088406;28;20833;-68
2023/03/17 09:42:01;;;;;;;19.60;18.47;;;13.90;99.90;;;;;;5083393;28;21008;-68
2023/03/17 09:44:47;;;;;;;21.03;19.03;;;14.00;99.90;;;;;;5085190;28;20466;-69
2023/03/17 09:47:30;;;;;;;19.40;18.37;;;14.30;99.90;;;;;;5084378;28;20464;-70
2023/03/17 09:50:00;;;;;;;20.20;19.00;;;14.60;99.90;;;;;;5087849;28;20488;-69
2023/03/17 09:52:29;;;;;;;19.70;18.20;;;14.70;99.90;;;;;;5089573;28;21014;-69
2023/03/17 09:54:57;;;;;;;21.07;19.37;;;14.90;99.90;;;;;;5084990;28;20468;-69
2023/03/17 09:57:26;;;;;;;20.07;18.97;;;15.10;99.90;;;;;;5084722;28;21910;-69
2023/03/17 10:00:00;;;;;;;20.90;19.50;;;15.00;99.90;;;;;;5084436;28;20472;-70
2023/03/17 10:02:30;;;;;;;21.20;19.80;;;15.10;99.90;;;;;;5085404;28;20493;-70
2023/03/17 10:04:57;;;;;;;21.10;19.40;;;15.00;99.90;;;;;;5087879;28;20620;-68
2023/03/17 10:07:35;;;;;;;21.90;19.90;;;15.30;99.90;;;;;;5091755;28;20953;-68
2023/03/17 10:10:05;;;;;;;21.87;20.17;;;15.20;99.90;;;;;;5089665;28;20540;-70
2023/03/17 10:12:44;;;;;;;21.57;19.80;;;15.30;99.90;;;;;;5086977;28;20472;-70
2023/03/17 10:15:17;;;;;;;20.93;19.40;;;15.30;99.90;;;;;;5088333;28;20588;-69
2023/03/17 10:17:45;;;;;;;21.73;19.87;;;15.60;99.90;;;;;;5088789;28;20923;-68
2023/03/17 10:20:16;;;;;;;21.40;19.63;;;15.90;99.90;;;;;;5084615;28;20473;-69
2023/03/17 10:22:47;;;;;;;20.60;18.93;;;16.40;99.90;;;;;;5091964;28;20978;-70
2023/03/17 10:25:17;;;;;;;19.50;18.33;;;16.80;99.90;;;;;;5098044;28;20556;-69
2023/03/17 10:27:51;;;;;;;20.73;18.90;;;17.20;99.90;;;;;;5086989;28;20462;-69
2023/03/17 10:30:22;;;;;;;21.33;19.17;;;17.30;99.90;;;;;;5090344;28;20465;-70
2023/03/17 10:32:50;;;;;;;20.60;19.20;;;17.40;99.90;;;;;;5090815;28;20462;-69
2023/03/17 10:35:18;;;;;;;20.70;18.90;;;17.50;99.90;;;;;;5090097;28;20749;-69
2023/03/17 10:37:47;;;;;;;20.53;19.10;;;17.40;99.90;;;;;;5088558;28;20462;-70
2023/03/17 10:40:23;;;;;;;20.73;19.17;;;17.50;99.90;;;;;;5087157;28;20454;-70
2023/03/17 10:42:55;;;;;;;19.73;18.30;;;18.10;99.90;;;;;;5088745;28;21003;-70
2023/03/17 10:45:28;;;;;;;19.70;18.40;;;18.70;99.90;;;;;;5089364;28;21022;-69
2023/03/17 10:47:57;;;;;;;19.67;18.40;;;19.10;99.90;;;;;;5092863;28;20779;-70
2023/03/17 10:50:29;;;;;;;21.00;19.30;;;19.60;98.20;;;;;;5087732;28;20462;-69
2023/03/17 10:52:59;;;;;;;19.50;18.30;;;20.10;97.20;;;;;;5087626;28;20830;-70
2023/03/17 10:55:29;;;;;;;19.90;18.40;;;20.80;96.00;;;;;;5096208;28;20461;-68
2023/03/17 10:58:05;;;;;;;20.07;18.77;;;21.30;95.10;;;;;;5091020;28;20465;-68
2023/03/17 11:00:36;;;;;;;19.40;18.00;;;21.20;93.40;;;;;;5089784;28;20457;-70
2023/03/17 11:03:11;;;;;;;19.50;18.07;;;21.20;93.60;;;;;;5091762;28;20462;-69
2023/03/17 11:05:39;;;;;;;19.20;17.77;;;21.40;91.80;;;;;;5092243;28;22450;-70
2023/03/17 11:08:15;;;;;;;18.93;17.90;;;21.40;91.30;;;;;;5090723;28;20454;-69
2023/03/17 11:10:41;;;;;;;19.67;18.10;;;21.90;90.30;;;;;;5080171;28;20905;-69
2023/03/17 11:15:58;;;;;;;19.27;17.90;;;22.60;89.10;;;;;;5088248;28;20453;-70
2023/03/17 11:18:30;;;;;;;18.93;17.90;;;22.60;87.10;;;;;;5090775;28;20465;-69
2023/03/17 11:21:02;;;;;;;18.90;17.70;;;23.30;86.50;;;;;;5086629;28;21031;-70
2023/03/17 11:23:50;;;;;;;19.00;17.80;;;23.80;81.70;;;;;;5090032;28;20888;-69
2023/03/17 11:26:32;;;;;;;20.30;18.80;;;23.70;82.20;;;;;;5090053;28;20480;-69
2023/03/17 11:29:18;;;;;;;19.43;17.93;;;23.50;78.60;;;;;;5089568;28;20573;-69
2023/03/17 11:31:54;;;;;;;20.57;18.83;;;23.50;78.20;;;;;;5093323;28;20511;-70
2023/03/17 11:34:28;;;;;;;19.13;17.93;;;23.90;79.20;;;;;;5086675;28;20470;-69
2023/03/17 11:37:00;;;;;;;18.90;17.80;;;23.30;76.60;;;;;;5088083;28;20559;-70
2023/03/17 11:39:32;;;;;;;18.87;17.53;;;23.20;76.80;;;;;;5089343;28;20468;-69
2023/03/17 11:42:07;;;;;;;19.13;17.87;;;23.10;76.50;;;;;;5092143;28;20988;-69
2023/03/17 11:44:55;;;;;;;18.67;17.37;;;22.50;76.90;;;;;;5091691;28;20462;-70
2023/03/17 11:47:39;;;;;;;18.73;17.63;;;22.30;79.20;;;;;;5080203;28;20523;-69
2023/03/17 11:50:17;;;;;;;19.13;17.40;;;22.30;78.60;;;;;;5088679;28;20462;-69
2023/03/17 11:52:55;;;;;;;19.43;17.60;;;21.90;78.60;;;;;;5088188;28;20445;-70
2023/03/17 11:55:25;;;;;;;19.13;17.57;;;21.40;78.10;;;;;;5083929;28;20468;-69
2023/03/17 11:57:56;;;;;;;18.60;17.50;;;20.80;80.30;;;;;;5091551;28;20980;-69
2023/03/17 12:00:28;;;;;;;18.57;17.10;;;21.00;81.00;;;;;;5085720;28;20900;-69
2023/03/17 12:03:00;;;;;;;18.73;17.30;;;21.10;79.80;;;;;;5088986;28;20493;-70
2023/03/17 12:05:29;;;;;;;18.27;17.07;;;21.30;80.70;;;;;;5086181;28;20482;-69
2023/03/17 12:07:59;;;;;;;18.67;17.37;;;21.00;78.20;;;;;;5085895;28;20548;-69
2023/03/17 12:10:33;;;;;;;18.27;17.17;;;21.00;80.90;;;;;;5087205;28;20664;-68
2023/03/17 12:13:05;;;;;;;18.73;17.40;;;21.00;77.90;;;;;;5083807;28;21055;-69
2023/03/17 12:15:38;;;;;;;18.57;17.23;;;20.90;77.50;;;;;;5088493;28;20462;-69
2023/03/17 12:18:13;;;;;;;18.10;17.00;;;21.20;78.60;;;;;;5082746;28;20534;-68
2023/03/17 12:20:47;;;;;;;18.33;17.03;;;21.20;78.20;;;;;;5085758;28;20466;-69
2023/03/17 12:23:28;;;;;;;19.10;17.40;;;21.10;78.20;;;;;;5091226;28;20492;-70
2023/03/17 12:25:59;;;;;;;18.40;17.20;;;21.20;78.90;;;;;;5082891;28;20575;-69
2023/03/17 12:28:28;;;;;;;18.97;17.40;;;21.20;79.20;;;;;;5088705;28;20838;-68
2023/03/17 12:31:04;;;;;;;18.60;17.33;;;21.00;76.70;;;;;;5088270;28;20475;-69
2023/03/17 12:33:38;;;;;;;19.30;17.90;;;20.80;78.20;;;;;;5085933;28;21173;-70
2023/03/17 12:36:07;;;;;;;18.10;17.20;;;20.80;78.10;;;;;;5082809;28;20516;-70
2023/03/17 12:38:39;;;;;;;18.07;16.97;;;20.40;77.30;;;;;;5080461;28;20461;-69
2023/03/17 12:41:28;;;;;;;18.47;17.27;;;20.30;78.50;;;;;;5086713;28;20473;-69
2023/03/17 12:44:05;;;;;;;19.37;17.50;;;20.30;79.00;;;;;;5086770;28;20488;-68
2023/03/17 12:47:03;;;;;;;18.67;17.40;;;20.30;80.30;;;;;;5085052;28;20816;-69
2023/03/17 12:49:45;;;;;;;18.00;16.90;;;20.40;78.90;;;;;;5082849;28;20453;-69
2023/03/17 12:52:22;;;;;;;18.70;17.23;;;20.50;80.10;;;;;;5087504;28;20470;-68